Sabetha, Kansas
Current Conditions -  °F | °C
As of 2:53 AM on Friday 19 Dec 2014 (Local Time) from KFNB Reporting Station
Haze Haze  
Wind Chill: 24°   Ceiling: 600
Heat Index: 30°   Visibility: 6mi
Dew Point: 27°   Wind: 6mph
Humidity: 88%   Direction: 220°SW
Pressure: 30.26"   Gusts: NA
Location:  39.9°N, 95.8°W
Report Text: KFNB 190853Z AUTO 22005KT 6SM BR OVC006 M01/M03 A3026 RMK AO2 SLP257 T10111028 53001
Loading
Personal Weather Stations






























Interactive Weather Map New forecast layout! Learn more

10-Day Weather Forecast

Advertisements
Track Severe Weather on mobile